sensor_id;sensor_type;location;lat;lon;timestamp;pressure;altitude;pressure_sealevel;temperature;humidity
12203;BME280;6164;42.178;24.622;2024-01-07T00:00:16;98491.63;;;5.07;100.00
12203;BME280;6164;42.178;24.622;2024-01-07T00:02:44;98470.84;;;5.06;100.00
12203;BME280;6164;42.178;24.622;2024-01-07T00:05:10;98498.69;;;5.15;100.00
12203;BME280;6164;42.178;24.622;2024-01-07T00:07:37;98507.53;;;5.22;100.00
12203;BME280;6164;42.178;24.622;2024-01-07T00:10:12;98494.28;;;5.31;100.00
12203;BME280;6164;42.178;24.622;2024-01-07T00:12:39;98478.44;;;5.33;100.00
12203;BME280;6164;42.178;24.622;2024-01-07T00:15:05;98476.47;;;5.35;100.00
12203;BME280;6164;42.178;24.622;2024-01-07T00:17:32;98456.84;;;5.39;100.00
12203;BME280;6164;42.178;24.622;2024-01-07T00:19:58;98425.44;;;5.31;100.00
12203;BME280;6164;42.178;24.622;2024-01-07T00:22:25;98433.94;;;5.41;100.00
12203;BME280;6164;42.178;24.622;2024-01-07T00:24:51;98417.75;;;5.37;100.00
12203;BME280;6164;42.178;24.622;2024-01-07T00:27:19;98405.16;;;5.25;100.00
12203;BME280;6164;42.178;24.622;2024-01-07T00:29:46;98418.88;;;5.19;100.00
12203;BME280;6164;42.178;24.622;2024-01-07T00:32:12;98457.16;;;5.28;100.00
12203;BME280;6164;42.178;24.622;2024-01-07T00:34:39;98467.47;;;5.37;100.00
12203;BME280;6164;42.178;24.622;2024-01-07T00:37:06;98420.84;;;5.41;100.00
12203;BME280;6164;42.178;24.622;2024-01-07T00:39:32;98424.78;;;5.45;100.00
12203;BME280;6164;42.178;24.622;2024-01-07T00:41:59;98408.09;;;5.46;100.00
12203;BME280;6164;42.178;24.622;2024-01-07T00:44:27;98404.47;;;5.47;100.00
12203;BME280;6164;42.178;24.622;2024-01-07T00:46:53;98407.13;;;5.55;100.00
12203;BME280;6164;42.178;24.622;2024-01-07T00:49:19;98396.81;;;5.62;100.00
12203;BME280;6164;42.178;24.622;2024-01-07T00:51:46;98377.31;;;5.64;100.00
12203;BME280;6164;42.178;24.622;2024-01-07T00:54:12;98387.78;;;5.64;100.00
12203;BME280;6164;42.178;24.622;2024-01-07T00:56:39;98364.88;;;5.66;100.00
12203;BME280;6164;42.178;24.622;2024-01-07T00:59:05;98349.19;;;5.66;100.00
12203;BME280;6164;42.178;24.622;2024-01-07T01:01:33;98368.78;;;5.70;100.00
12203;BME280;6164;42.178;24.622;2024-01-07T01:04:00;98356.66;;;5.77;100.00
12203;BME280;6164;42.178;24.622;2024-01-07T01:06:26;98330.50;;;5.69;100.00
12203;BME280;6164;42.178;24.622;2024-01-07T01:08:52;98333.28;;;5.76;100.00
12203;BME280;6164;42.178;24.622;2024-01-07T01:11:19;98314.94;;;5.84;100.00
12203;BME280;6164;42.178;24.622;2024-01-07T01:13:45;98300.88;;;5.85;100.00
12203;BME280;6164;42.178;24.622;2024-01-07T01:16:12;98276.44;;;5.92;100.00
12203;BME280;6164;42.178;24.622;2024-01-07T01:18:40;98267.13;;;5.90;100.00
12203;BME280;6164;42.178;24.622;2024-01-07T01:21:06;98251.13;;;5.85;100.00
12203;BME280;6164;42.178;24.622;2024-01-07T01:23:33;98259.91;;;5.92;100.00
12203;BME280;6164;42.178;24.622;2024-01-07T01:26:00;98255.16;;;5.95;100.00
12203;BME280;6164;42.178;24.622;2024-01-07T01:28:26;98248.78;;;5.98;100.00
12203;BME280;6164;42.178;24.622;2024-01-07T01:30:53;98240.09;;;5.97;100.00
12203;BME280;6164;42.178;24.622;2024-01-07T01:33:19;98246.16;;;5.98;100.00
12203;BME280;6164;42.178;24.622;2024-01-07T01:35:47;98230.59;;;5.96;100.00
12203;BME280;6164;42.178;24.622;2024-01-07T01:38:13;98218.97;;;5.99;100.00
12203;BME280;6164;42.178;24.622;2024-01-07T01:40:40;98198.81;;;5.99;100.00
12203;BME280;6164;42.178;24.622;2024-01-07T01:43:07;98199.31;;;6.03;100.00
12203;BME280;6164;42.178;24.622;2024-01-07T01:45:33;98189.25;;;6.06;100.00
12203;BME280;6164;42.178;24.622;2024-01-07T01:48:00;98168.47;;;6.05;100.00
12203;BME280;6164;42.178;24.622;2024-01-07T01:50:26;98153.88;;;6.10;100.00
12203;BME280;6164;42.178;24.622;2024-01-07T01:52:54;98155.19;;;6.14;100.00
12203;BME280;6164;42.178;24.622;2024-01-07T01:55:21;98149.22;;;6.20;100.00
12203;BME280;6164;42.178;24.622;2024-01-07T01:57:47;98153.09;;;6.24;100.00
12203;BME280;6164;42.178;24.622;2024-01-07T02:00:15;98149.97;;;6.29;100.00
12203;BME280;6164;42.178;24.622;2024-01-07T02:02:41;98168.16;;;6.30;100.00
12203;BME280;6164;42.178;24.622;2024-01-07T02:05:08;98172.38;;;6.31;100.00
12203;BME280;6164;42.178;24.622;2024-01-07T02:07:34;98158.63;;;6.29;100.00
12203;BME280;6164;42.178;24.622;2024-01-07T02:10:03;98149.50;;;6.25;100.00
12203;BME280;6164;42.178;24.622;2024-01-07T02:12:29;98148.16;;;6.29;100.00
12203;BME280;6164;42.178;24.622;2024-01-07T02:14:56;98141.47;;;6.27;100.00
12203;BME280;6164;42.178;24.622;2024-01-07T02:17:23;98128.56;;;6.25;100.00
12203;BME280;6164;42.178;24.622;2024-01-07T02:19:49;98120.34;;;6.28;100.00
12203;BME280;6164;42.178;24.622;2024-01-07T02:22:15;98124.44;;;6.31;100.00
12203;BME280;6164;42.178;24.622;2024-01-07T02:24:45;98111.75;;;6.34;100.00
12203;BME280;6164;42.178;24.622;2024-01-07T02:27:11;98095.84;;;6.36;100.00
12203;BME280;6164;42.178;24.622;2024-01-07T02:29:38;98103.19;;;6.40;100.00
12203;BME280;6164;42.178;24.622;2024-01-07T02:32:05;98099.09;;;6.23;100.00
12203;BME280;6164;42.178;24.622;2024-01-07T02:34:32;98103.50;;;6.23;100.00
12203;BME280;6164;42.178;24.622;2024-01-07T02:36:58;98093.66;;;6.25;100.00
12203;BME280;6164;42.178;24.622;2024-01-07T02:39:24;98069.47;;;6.00;100.00
12203;BME280;6164;42.178;24.622;2024-01-07T02:41:52;98062.81;;;5.98;100.00
12203;BME280;6164;42.178;24.622;2024-01-07T02:44:19;98070.41;;;6.07;100.00
12203;BME280;6164;42.178;24.622;2024-01-07T02:46:45;98061.56;;;6.08;100.00
12203;BME280;6164;42.178;24.622;2024-01-07T02:49:12;98059.31;;;6.20;100.00
12203;BME280;6164;42.178;24.622;2024-01-07T02:51:38;98061.53;;;6.31;100.00
12203;BME280;6164;42.178;24.622;2024-01-07T02:54:05;98084.78;;;6.48;100.00
12203;BME280;6164;42.178;24.622;2024-01-07T02:56:31;98093.84;;;6.60;100.00
12203;BME280;6164;42.178;24.622;2024-01-07T02:58:59;98092.28;;;6.66;100.00
12203;BME280;6164;42.178;24.622;2024-01-07T03:01:26;98108.75;;;6.75;100.00
12203;BME280;6164;42.178;24.622;2024-01-07T03:03:52;98123.41;;;6.84;100.00
12203;BME280;6164;42.178;24.622;2024-01-07T03:06:19;98125.91;;;6.77;100.00
12203;BME280;6164;42.178;24.622;2024-01-07T03:08:46;98110.19;;;6.62;100.00
12203;BME280;6164;42.178;24.622;2024-01-07T03:11:13;98135.88;;;6.67;100.00
12203;BME280;6164;42.178;24.622;2024-01-07T03:13:39;98149.59;;;6.69;100.00
12203;BME280;6164;42.178;24.622;2024-01-07T03:16:07;98146.97;;;6.69;100.00
12203;BME280;6164;42.178;24.622;2024-01-07T03:18:34;98144.91;;;6.64;100.00
12203;BME280;6164;42.178;24.622;2024-01-07T03:21:00;98144.06;;;6.64;100.00
12203;BME280;6164;42.178;24.622;2024-01-07T03:23:27;98126.88;;;6.32;100.00
12203;BME280;6164;42.178;24.622;2024-01-07T03:25:53;98164.34;;;6.33;100.00
12203;BME280;6164;42.178;24.622;2024-01-07T03:28:20;98134.53;;;6.34;100.00
12203;BME280;6164;42.178;24.622;2024-01-07T03:30:46;98138.97;;;6.33;100.00
12203;BME280;6164;42.178;24.622;2024-01-07T03:33:14;98133.91;;;6.32;100.00
12203;BME280;6164;42.178;24.622;2024-01-07T03:35:40;98127.16;;;6.37;100.00
12203;BME280;6164;42.178;24.622;2024-01-07T03:38:06;98119.09;;;6.39;100.00
12203;BME280;6164;42.178;24.622;2024-01-07T03:40:32;98107.41;;;6.27;100.00
12203;BME280;6164;42.178;24.622;2024-01-07T03:42:59;98105.16;;;6.24;100.00
12203;BME280;6164;42.178;24.622;2024-01-07T03:45:25;98100.56;;;6.26;100.00
12203;BME280;6164;42.178;24.622;2024-01-07T03:47:52;98106.22;;;6.29;100.00
12203;BME280;6164;42.178;24.622;2024-01-07T03:50:20;98118.19;;;6.32;100.00
12203;BME280;6164;42.178;24.622;2024-01-07T03:52:46;98106.09;;;6.45;100.00
12203;BME280;6164;42.178;24.622;2024-01-07T03:55:13;98091.16;;;6.46;100.00
12203;BME280;6164;42.178;24.622;2024-01-07T03:57:39;98086.03;;;6.52;100.00
12203;BME280;6164;42.178;24.622;2024-01-07T04:00:06;98082.78;;;6.50;100.00
12203;BME280;6164;42.178;24.622;2024-01-07T04:02:34;98085.69;;;6.55;100.00
12203;BME280;6164;42.178;24.622;2024-01-07T04:05:01;98096.09;;;6.63;100.00
12203;BME280;6164;42.178;24.622;2024-01-07T04:07:29;98083.88;;;6.70;100.00
12203;BME280;6164;42.178;24.622;2024-01-07T04:09:56;98058.56;;;6.78;100.00
12203;BME280;6164;42.178;24.622;2024-01-07T04:12:22;98022.19;;;6.89;100.00
12203;BME280;6164;42.178;24.622;2024-01-07T04:14:49;97999.84;;;6.93;100.00
12203;BME280;6164;42.178;24.622;2024-01-07T04:17:15;97987.59;;;7.00;100.00
12203;BME280;6164;42.178;24.622;2024-01-07T04:19:42;97987.53;;;7.08;100.00
12203;BME280;6164;42.178;24.622;2024-01-07T04:22:08;98005.78;;;7.16;100.00
12203;BME280;6164;42.178;24.622;2024-01-07T04:24:36;98034.34;;;7.26;100.00
12203;BME280;6164;42.178;24.622;2024-01-07T04:27:03;98070.16;;;7.33;100.00
12203;BME280;6164;42.178;24.622;2024-01-07T04:29:29;98065.34;;;7.37;100.00
12203;BME280;6164;42.178;24.622;2024-01-07T04:31:56;98051.69;;;7.27;100.00
12203;BME280;6164;42.178;24.622;2024-01-07T04:34:22;98048.56;;;7.17;100.00
12203;BME280;6164;42.178;24.622;2024-01-07T04:36:49;98036.34;;;7.24;100.00
12203;BME280;6164;42.178;24.622;2024-01-07T04:39:16;98020.59;;;7.24;100.00
12203;BME280;6164;42.178;24.622;2024-01-07T04:41:43;98030.00;;;7.33;100.00
12203;BME280;6164;42.178;24.622;2024-01-07T04:44:10;98034.09;;;7.42;100.00
12203;BME280;6164;42.178;24.622;2024-01-07T04:46:37;98027.94;;;7.49;100.00
12203;BME280;6164;42.178;24.622;2024-01-07T04:49:04;98017.50;;;7.56;100.00
12203;BME280;6164;42.178;24.622;2024-01-07T04:51:31;98031.88;;;7.60;100.00
12203;BME280;6164;42.178;24.622;2024-01-07T04:53:57;98044.28;;;7.66;100.00
12203;BME280;6164;42.178;24.622;2024-01-07T04:56:24;98043.63;;;7.64;100.00
12203;BME280;6164;42.178;24.622;2024-01-07T04:58:52;98034.63;;;7.52;100.00
12203;BME280;6164;42.178;24.622;2024-01-07T05:01:18;98020.97;;;7.63;100.00
12203;BME280;6164;42.178;24.622;2024-01-07T05:03:45;98021.03;;;7.69;100.00
12203;BME280;6164;42.178;24.622;2024-01-07T05:06:11;98023.72;;;7.76;100.00
12203;BME280;6164;42.178;24.622;2024-01-07T05:08:39;98014.06;;;7.76;100.00
12203;BME280;6164;42.178;24.622;2024-01-07T05:11:06;98036.75;;;7.84;100.00
12203;BME280;6164;42.178;24.622;2024-01-07T05:13:33;98017.69;;;7.75;100.00
12203;BME280;6164;42.178;24.622;2024-01-07T05:16:01;98026.81;;;7.79;100.00
12203;BME280;6164;42.178;24.622;2024-01-07T05:18:28;98025.06;;;7.86;100.00
12203;BME280;6164;42.178;24.622;2024-01-07T05:20:54;98026.31;;;7.90;100.00
12203;BME280;6164;42.178;24.622;2024-01-07T05:23:20;98012.59;;;7.95;100.00
12203;BME280;6164;42.178;24.622;2024-01-07T05:25:47;98023.53;;;7.98;100.00
12203;BME280;6164;42.178;24.622;2024-01-07T05:28:13;98027.59;;;8.01;100.00
12203;BME280;6164;42.178;24.622;2024-01-07T05:30:44;98042.19;;;8.03;100.00
12203;BME280;6164;42.178;24.622;2024-01-07T05:33:12;98032.28;;;8.05;100.00
12203;BME280;6164;42.178;24.622;2024-01-07T05:35:38;98026.03;;;8.07;100.00
12203;BME280;6164;42.178;24.622;2024-01-07T05:38:05;98027.03;;;8.05;100.00
12203;BME280;6164;42.178;24.622;2024-01-07T05:40:31;98030.66;;;8.04;100.00
12203;BME280;6164;42.178;24.622;2024-01-07T05:42:58;98042.44;;;8.09;100.00
12203;BME280;6164;42.178;24.622;2024-01-07T05:45:24;98048.13;;;8.12;100.00
12203;BME280;6164;42.178;24.622;2024-01-07T05:47:51;98036.41;;;8.15;100.00
12203;BME280;6164;42.178;24.622;2024-01-07T05:50:18;98042.09;;;8.18;100.00
12203;BME280;6164;42.178;24.622;2024-01-07T05:52:45;98039.59;;;8.10;100.00
12203;BME280;6164;42.178;24.622;2024-01-07T05:55:12;98049.56;;;7.93;100.00
12203;BME280;6164;42.178;24.622;2024-01-07T05:57:38;98039.94;;;8.00;100.00
12203;BME280;6164;42.178;24.622;2024-01-07T06:00:05;98038.09;;;8.01;100.00
12203;BME280;6164;42.178;24.622;2024-01-07T06:02:34;98025.09;;;7.93;100.00
12203;BME280;6164;42.178;24.622;2024-01-07T06:05:01;98028.50;;;7.87;100.00
12203;BME280;6164;42.178;24.622;2024-01-07T06:07:29;98033.56;;;7.88;100.00
12203;BME280;6164;42.178;24.622;2024-01-07T06:09:56;98038.63;;;7.90;100.00
12203;BME280;6164;42.178;24.622;2024-01-07T06:12:25;98030.81;;;7.96;100.00
12203;BME280;6164;42.178;24.622;2024-01-07T06:14:51;98022.34;;;8.01;100.00
12203;BME280;6164;42.178;24.622;2024-01-07T06:17:18;98024.81;;;8.09;100.00
12203;BME280;6164;42.178;24.622;2024-01-07T06:19:44;98018.44;;;8.18;100.00
12203;BME280;6164;42.178;24.622;2024-01-07T06:22:11;98014.41;;;8.22;100.00
12203;BME280;6164;42.178;24.622;2024-01-07T06:24:39;98019.53;;;8.24;100.00
12203;BME280;6164;42.178;24.622;2024-01-07T06:27:05;98014.31;;;8.30;100.00
12203;BME280;6164;42.178;24.622;2024-01-07T06:29:32;98009.09;;;8.37;100.00
12203;BME280;6164;42.178;24.622;2024-01-07T06:31:58;98012.56;;;8.44;100.00
12203;BME280;6164;42.178;24.622;2024-01-07T06:34:25;97998.88;;;8.48;100.00
12203;BME280;6164;42.178;24.622;2024-01-07T06:36:51;98000.72;;;8.54;100.00
12203;BME280;6164;42.178;24.622;2024-01-07T06:39:18;97998.94;;;8.61;100.00
12203;BME280;6164;42.178;24.622;2024-01-07T06:41:46;97997.31;;;8.67;100.00
12203;BME280;6164;42.178;24.622;2024-01-07T06:44:12;97995.34;;;8.75;100.00
12203;BME280;6164;42.178;24.622;2024-01-07T06:46:39;98000.44;;;8.83;100.00
12203;BME280;6164;42.178;24.622;2024-01-07T06:49:05;97999.69;;;8.89;100.00
12203;BME280;6164;42.178;24.622;2024-01-07T06:51:33;98000.50;;;8.96;100.00
12203;BME280;6164;42.178;24.622;2024-01-07T06:54:00;98029.88;;;9.00;100.00
12203;BME280;6164;42.178;24.622;2024-01-07T06:56:26;98025.06;;;8.69;100.00
12203;BME280;6164;42.178;24.622;2024-01-07T06:58:54;98034.59;;;8.70;100.00
12203;BME280;6164;42.178;24.622;2024-01-07T07:01:21;98024.78;;;8.51;100.00
12203;BME280;6164;42.178;24.622;2024-01-07T07:03:48;98036.31;;;8.57;100.00
12203;BME280;6164;42.178;24.622;2024-01-07T07:06:14;98031.47;;;8.60;100.00
12203;BME280;6164;42.178;24.622;2024-01-07T07:08:41;98034.94;;;8.61;100.00
12203;BME280;6164;42.178;24.622;2024-01-07T07:11:07;98027.81;;;8.55;100.00
12203;BME280;6164;42.178;24.622;2024-01-07T07:13:34;98017.06;;;8.50;100.00
12203;BME280;6164;42.178;24.622;2024-01-07T07:16:02;98028.38;;;8.50;100.00
12203;BME280;6164;42.178;24.622;2024-01-07T07:18:29;98018.69;;;8.51;100.00
12203;BME280;6164;42.178;24.622;2024-01-07T07:20:55;98018.88;;;8.49;100.00
12203;BME280;6164;42.178;24.622;2024-01-07T07:23:21;98025.31;;;8.47;100.00
12203;BME280;6164;42.178;24.622;2024-01-07T07:25:48;98019.72;;;8.50;100.00
12203;BME280;6164;42.178;24.622;2024-01-07T07:28:14;98024.34;;;8.48;100.00
12203;BME280;6164;42.178;24.622;2024-01-07T07:30:42;98019.28;;;8.46;100.00
12203;BME280;6164;42.178;24.622;2024-01-07T07:33:11;98031.22;;;8.49;100.00
12203;BME280;6164;42.178;24.622;2024-01-07T07:35:38;98026.56;;;8.51;100.00
12203;BME280;6164;42.178;24.622;2024-01-07T07:38:06;98034.69;;;8.56;100.00
12203;BME280;6164;42.178;24.622;2024-01-07T07:40:33;98034.50;;;8.57;100.00
12203;BME280;6164;42.178;24.622;2024-01-07T07:42:59;98045.66;;;8.59;100.00
12203;BME280;6164;42.178;24.622;2024-01-07T07:45:26;98032.50;;;8.59;100.00
12203;BME280;6164;42.178;24.622;2024-01-07T07:47:52;98032.31;;;8.61;100.00
12203;BME280;6164;42.178;24.622;2024-01-07T07:50:20;98031.91;;;8.64;100.00
12203;BME280;6164;42.178;24.622;2024-01-07T07:52:47;98032.34;;;8.67;100.00
12203;BME280;6164;42.178;24.622;2024-01-07T07:55:13;98024.69;;;8.72;100.00
12203;BME280;6164;42.178;24.622;2024-01-07T07:57:39;98030.19;;;8.77;100.00
12203;BME280;6164;42.178;24.622;2024-01-07T08:00:06;98025.56;;;8.86;100.00
12203;BME280;6164;42.178;24.622;2024-01-07T08:02:36;98020.34;;;8.92;100.00
12203;BME280;6164;42.178;24.622;2024-01-07T08:05:03;98021.38;;;9.04;100.00
12203;BME280;6164;42.178;24.622;2024-01-07T08:07:30;98014.56;;;9.16;100.00
12203;BME280;6164;42.178;24.622;2024-01-07T08:09:57;98004.66;;;9.25;100.00
12203;BME280;6164;42.178;24.622;2024-01-07T08:12:23;97998.22;;;9.41;100.00
12203;BME280;6164;42.178;24.622;2024-01-07T08:14:50;97993.19;;;9.52;100.00
12203;BME280;6164;42.178;24.622;2024-01-07T08:17:17;97982.25;;;9.68;100.00
12203;BME280;6164;42.178;24.622;2024-01-07T08:19:43;97979.22;;;9.84;100.00
12203;BME280;6164;42.178;24.622;2024-01-07T08:22:09;97969.50;;;10.04;100.00
12203;BME280;6164;42.178;24.622;2024-01-07T08:24:38;97954.72;;;10.23;100.00
12203;BME280;6164;42.178;24.622;2024-01-07T08:27:05;97947.31;;;10.44;100.00
12203;BME280;6164;42.178;24.622;2024-01-07T08:29:31;97950.72;;;10.64;100.00
12203;BME280;6164;42.178;24.622;2024-01-07T08:31:58;97953.34;;;10.71;100.00
12203;BME280;6164;42.178;24.622;2024-01-07T08:34:24;97968.75;;;10.74;100.00
12203;BME280;6164;42.178;24.622;2024-01-07T08:36:51;97973.44;;;10.79;100.00
12203;BME280;6164;42.178;24.622;2024-01-07T08:39:19;97990.84;;;10.86;100.00
12203;BME280;6164;42.178;24.622;2024-01-07T08:41:46;97990.59;;;10.94;100.00
12203;BME280;6164;42.178;24.622;2024-01-07T08:44:13;97978.41;;;11.00;100.00
12203;BME280;6164;42.178;24.622;2024-01-07T08:46:39;97984.28;;;11.08;100.00
12203;BME280;6164;42.178;24.622;2024-01-07T08:49:06;97986.66;;;11.16;100.00
12203;BME280;6164;42.178;24.622;2024-01-07T08:51:32;97965.50;;;11.23;100.00
12203;BME280;6164;42.178;24.622;2024-01-07T08:53:59;97968.06;;;11.36;100.00
12203;BME280;6164;42.178;24.622;2024-01-07T08:56:26;97949.88;;;11.52;100.00
12203;BME280;6164;42.178;24.622;2024-01-07T08:58:54;97956.88;;;11.71;100.00
12203;BME280;6164;42.178;24.622;2024-01-07T09:01:20;97950.19;;;11.93;100.00
12203;BME280;6164;42.178;24.622;2024-01-07T09:03:47;97963.47;;;12.12;100.00
12203;BME280;6164;42.178;24.622;2024-01-07T09:06:14;97961.44;;;12.32;100.00
12203;BME280;6164;42.178;24.622;2024-01-07T09:08:40;97953.06;;;12.35;100.00
12203;BME280;6164;42.178;24.622;2024-01-07T09:11:07;97960.06;;;12.47;100.00
12203;BME280;6164;42.178;24.622;2024-01-07T09:13:36;97933.59;;;12.47;100.00
12203;BME280;6164;42.178;24.622;2024-01-07T09:16:04;97943.94;;;12.49;100.00
12203;BME280;6164;42.178;24.622;2024-01-07T09:18:31;97943.38;;;12.47;100.00
12203;BME280;6164;42.178;24.622;2024-01-07T09:20:57;97945.22;;;12.46;100.00
12203;BME280;6164;42.178;24.622;2024-01-07T09:23:24;97948.53;;;12.42;100.00
12203;BME280;6164;42.178;24.622;2024-01-07T09:25:50;97930.44;;;12.39;100.00
12203;BME280;6164;42.178;24.622;2024-01-07T09:28:16;97945.13;;;12.35;100.00
12203;BME280;6164;42.178;24.622;2024-01-07T09:30:43;97947.25;;;12.26;100.00
12203;BME280;6164;42.178;24.622;2024-01-07T09:33:11;97936.88;;;12.25;100.00
12203;BME280;6164;42.178;24.622;2024-01-07T09:35:37;97950.09;;;12.25;100.00
12203;BME280;6164;42.178;24.622;2024-01-07T09:38:04;97947.03;;;12.28;100.00
12203;BME280;6164;42.178;24.622;2024-01-07T09:40:30;97948.00;;;12.33;100.00
12203;BME280;6164;42.178;24.622;2024-01-07T09:42:57;97938.56;;;12.37;100.00
12203;BME280;6164;42.178;24.622;2024-01-07T09:45:24;97949.69;;;12.46;100.00
12203;BME280;6164;42.178;24.622;2024-01-07T09:47:51;97949.75;;;12.57;100.00
12203;BME280;6164;42.178;24.622;2024-01-07T09:50:19;97943.81;;;12.80;100.00
12203;BME280;6164;42.178;24.622;2024-01-07T09:52:45;97936.88;;;12.97;100.00
12203;BME280;6164;42.178;24.622;2024-01-07T09:55:13;97945.50;;;13.10;100.00
12203;BME280;6164;42.178;24.622;2024-01-07T09:57:44;97928.78;;;13.10;100.00
12203;BME280;6164;42.178;24.622;2024-01-07T10:00:11;97922.09;;;13.07;100.00
12203;BME280;6164;42.178;24.622;2024-01-07T10:02:38;97914.94;;;13.08;100.00
12203;BME280;6164;42.178;24.622;2024-01-07T10:05:06;97914.44;;;13.17;100.00
12203;BME280;6164;42.178;24.622;2024-01-07T10:07:34;97904.78;;;13.35;100.00
12203;BME280;6164;42.178;24.622;2024-01-07T10:10:09;97898.16;;;13.55;100.00
12203;BME280;6164;42.178;24.622;2024-01-07T10:12:36;97891.25;;;13.77;100.00
12203;BME280;6164;42.178;24.622;2024-01-07T10:15:03;97879.28;;;13.86;100.00
12203;BME280;6164;42.178;24.622;2024-01-07T10:17:30;97860.94;;;13.85;100.00
12203;BME280;6164;42.178;24.622;2024-01-07T10:19:57;97840.66;;;13.79;100.00
12203;BME280;6164;42.178;24.622;2024-01-07T10:22:24;97830.25;;;13.77;100.00
12203;BME280;6164;42.178;24.622;2024-01-07T10:24:52;97827.84;;;13.76;100.00
12203;BME280;6164;42.178;24.622;2024-01-07T10:27:18;97827.63;;;13.77;100.00
12203;BME280;6164;42.178;24.622;2024-01-07T10:29:46;97823.47;;;13.81;100.00
12203;BME280;6164;42.178;24.622;2024-01-07T10:32:14;97814.03;;;13.85;100.00
12203;BME280;6164;42.178;24.622;2024-01-07T10:34:41;97800.88;;;13.90;100.00
12203;BME280;6164;42.178;24.622;2024-01-07T10:37:12;97795.78;;;13.77;100.00
12203;BME280;6164;42.178;24.622;2024-01-07T10:39:40;97792.09;;;13.90;100.00
12203;BME280;6164;42.178;24.622;2024-01-07T10:42:08;97777.91;;;13.96;100.00
12203;BME280;6164;42.178;24.622;2024-01-07T10:44:35;97770.50;;;14.09;100.00
12203;BME280;6164;42.178;24.622;2024-01-07T10:47:03;97759.03;;;14.20;100.00
12203;BME280;6164;42.178;24.622;2024-01-07T10:49:32;97758.00;;;14.33;100.00
12203;BME280;6164;42.178;24.622;2024-01-07T10:52:02;97757.25;;;14.49;100.00
12203;BME280;6164;42.178;24.622;2024-01-07T10:54:30;97755.03;;;14.58;100.00
12203;BME280;6164;42.178;24.622;2024-01-07T10:56:58;97754.63;;;14.66;100.00
12203;BME280;6164;42.178;24.622;2024-01-07T10:59:27;97753.44;;;14.73;100.00
12203;BME280;6164;42.178;24.622;2024-01-07T11:01:54;97755.78;;;14.86;100.00
12203;BME280;6164;42.178;24.622;2024-01-07T11:04:22;97746.88;;;15.09;100.00
12203;BME280;6164;42.178;24.622;2024-01-07T11:06:49;97750.41;;;15.14;100.00
12203;BME280;6164;42.178;24.622;2024-01-07T11:09:18;97744.31;;;15.14;100.00
12203;BME280;6164;42.178;24.622;2024-01-07T11:11:46;97741.41;;;15.15;100.00
12203;BME280;6164;42.178;24.622;2024-01-07T11:16:55;97730.53;;;15.17;100.00
12203;BME280;6164;42.178;24.622;2024-01-07T11:19:22;97732.06;;;15.13;100.00
12203;BME280;6164;42.178;24.622;2024-01-07T11:21:49;97729.56;;;15.06;100.00
12203;BME280;6164;42.178;24.622;2024-01-07T11:27:00;97726.56;;;15.19;100.00
12203;BME280;6164;42.178;24.622;2024-01-07T11:29:27;97723.66;;;15.21;100.00
12203;BME280;6164;42.178;24.622;2024-01-07T11:31:53;97715.78;;;15.26;100.00
12203;BME280;6164;42.178;24.622;2024-01-07T11:34:40;97716.91;;;15.30;100.00
12203;BME280;6164;42.178;24.622;2024-01-07T11:37:10;97709.44;;;15.27;100.00
12203;BME280;6164;42.178;24.622;2024-01-07T11:39:36;97699.34;;;15.29;100.00
12203;BME280;6164;42.178;24.622;2024-01-07T11:42:03;97709.44;;;15.43;100.00
12203;BME280;6164;42.178;24.622;2024-01-07T11:44:35;97706.69;;;15.55;100.00
12203;BME280;6164;42.178;24.622;2024-01-07T11:47:03;97710.66;;;15.74;100.00
12203;BME280;6164;42.178;24.622;2024-01-07T11:49:30;97716.91;;;15.85;100.00
12203;BME280;6164;42.178;24.622;2024-01-07T11:51:58;97722.78;;;15.87;100.00
12203;BME280;6164;42.178;24.622;2024-01-07T11:54:24;97721.47;;;15.89;100.00
12203;BME280;6164;42.178;24.622;2024-01-07T11:56:51;97720.84;;;15.82;100.00
12203;BME280;6164;42.178;24.622;2024-01-07T11:59:17;97715.22;;;15.78;100.00
12203;BME280;6164;42.178;24.622;2024-01-07T12:01:44;97710.78;;;15.84;100.00
12203;BME280;6164;42.178;24.622;2024-01-07T12:04:10;97709.72;;;15.85;100.00
12203;BME280;6164;42.178;24.622;2024-01-07T12:06:37;97707.06;;;15.85;100.00
12203;BME280;6164;42.178;24.622;2024-01-07T12:09:05;97709.47;;;15.87;100.00
12203;BME280;6164;42.178;24.622;2024-01-07T12:11:32;97709.72;;;15.85;100.00
12203;BME280;6164;42.178;24.622;2024-01-07T12:13:58;97708.88;;;15.79;100.00
12203;BME280;6164;42.178;24.622;2024-01-07T12:16:25;97709.59;;;15.75;100.00
12203;BME280;6164;42.178;24.622;2024-01-07T12:18:51;97703.34;;;15.64;100.00
12203;BME280;6164;42.178;24.622;2024-01-07T12:21:18;97702.03;;;15.67;100.00
12203;BME280;6164;42.178;24.622;2024-01-07T12:23:47;97704.00;;;15.55;100.00
12203;BME280;6164;42.178;24.622;2024-01-07T12:26:15;97702.47;;;15.59;100.00
12203;BME280;6164;42.178;24.622;2024-01-07T12:28:42;97704.09;;;15.60;100.00
12203;BME280;6164;42.178;24.622;2024-01-07T12:31:08;97699.47;;;15.55;100.00
12203;BME280;6164;42.178;24.622;2024-01-07T12:33:36;97705.28;;;15.52;100.00
12203;BME280;6164;42.178;24.622;2024-01-07T12:36:03;97704.19;;;15.48;100.00
12203;BME280;6164;42.178;24.622;2024-01-07T12:38:29;97706.59;;;15.50;100.00
12203;BME280;6164;42.178;24.622;2024-01-07T12:40:56;97705.78;;;15.49;100.00
12203;BME280;6164;42.178;24.622;2024-01-07T12:43:24;97705.72;;;15.44;100.00
12203;BME280;6164;42.178;24.622;2024-01-07T12:45:50;97717.56;;;15.37;100.00
12203;BME280;6164;42.178;24.622;2024-01-07T12:48:17;97713.03;;;15.37;100.00
12203;BME280;6164;42.178;24.622;2024-01-07T12:50:44;97715.34;;;15.34;100.00
12203;BME280;6164;42.178;24.622;2024-01-07T12:53:11;97717.78;;;15.35;100.00
12203;BME280;6164;42.178;24.622;2024-01-07T12:55:40;97717.06;;;15.23;100.00
12203;BME280;6164;42.178;24.622;2024-01-07T12:58:07;97710.69;;;15.24;100.00
12203;BME280;6164;42.178;24.622;2024-01-07T13:00:35;97714.81;;;15.32;100.00